createdAt,value
2018-09-10T00:01:36.231Z,19.40
2018-09-10T00:06:40.035Z,19.30
2018-09-10T00:11:43.816Z,19.20
2018-09-10T00:16:47.455Z,19.20
2018-09-10T00:21:51.108Z,19.20
2018-09-10T00:26:55.112Z,19.20
2018-09-10T00:31:58.851Z,19.30
2018-09-10T00:37:02.555Z,19.40
2018-09-10T00:42:06.160Z,19.40
2018-09-10T00:47:10.075Z,19.50
2018-09-10T00:52:14.208Z,19.50
2018-09-10T00:57:17.998Z,19.50
2018-09-10T01:02:21.677Z,19.50
2018-09-10T01:07:25.708Z,19.60
2018-09-10T01:12:30.874Z,19.60
2018-09-10T01:23:08.280Z,19.60
2018-09-10T01:28:12.237Z,19.60
2018-09-10T01:33:21.179Z,19.60
2018-09-10T01:38:34.759Z,19.70
2018-09-10T01:43:38.357Z,19.70
2018-09-10T01:48:42.911Z,19.70
2018-09-10T01:53:46.880Z,19.80
2018-09-10T01:58:50.991Z,19.70
2018-09-10T02:03:54.945Z,19.70
2018-09-10T02:08:59.114Z,19.80
2018-09-10T02:14:02.852Z,19.80
2018-09-10T02:24:52.434Z,19.80
2018-09-10T02:29:56.340Z,19.70
2018-09-10T02:35:00.217Z,19.50
2018-09-10T02:40:04.002Z,19.40
2018-09-10T02:45:07.654Z,19.30
2018-09-10T02:50:12.422Z,19.20
2018-09-10T02:55:16.402Z,19.10
2018-09-10T03:00:24.667Z,19.00
2018-09-10T03:05:28.332Z,18.90
2018-09-10T03:10:32.375Z,18.80
2018-09-10T03:15:36.846Z,18.70
2018-09-10T03:20:41.335Z,18.60
2018-09-10T03:25:44.893Z,18.60
2018-09-10T03:30:48.623Z,18.50
2018-09-10T03:35:52.319Z,18.50
2018-09-10T03:40:56.138Z,18.40
2018-09-10T03:46:00.331Z,18.40
2018-09-10T03:51:04.156Z,18.40
2018-09-10T03:56:08.086Z,18.30
2018-09-10T04:01:12.326Z,18.30
2018-09-10T04:06:16.279Z,18.30
2018-09-10T04:11:20.164Z,18.30
2018-09-10T04:16:24.216Z,18.40
2018-09-10T04:21:28.144Z,18.40
2018-09-10T04:26:32.653Z,18.40
2018-09-10T04:31:36.508Z,18.30
2018-09-10T04:36:40.470Z,18.40
2018-09-10T04:41:44.409Z,18.40
2018-09-10T04:46:48.475Z,18.40
2018-09-10T04:51:52.451Z,18.40
2018-09-10T04:56:56.191Z,18.40
2018-09-10T05:02:00.330Z,18.30
2018-09-10T05:07:16.214Z,18.30
2018-09-10T05:12:20.110Z,18.30
2018-09-10T05:17:24.001Z,18.20
2018-09-10T05:22:27.891Z,18.20
2018-09-10T05:27:31.615Z,18.20
2018-09-10T05:32:35.401Z,18.20
2018-09-10T05:37:39.112Z,18.20
2018-09-10T05:42:43.380Z,18.30
2018-09-10T05:47:47.097Z,18.40
2018-09-10T05:52:50.792Z,18.50
2018-09-10T05:57:54.606Z,18.60
2018-09-10T06:02:59.087Z,18.60
2018-09-10T06:08:20.955Z,18.70
2018-09-10T06:13:25.579Z,18.80
2018-09-10T06:34:59.230Z,19.00
2018-09-10T06:40:03.295Z,19.10
2018-09-10T06:45:06.948Z,19.10
2018-09-10T06:50:10.944Z,19.20
2018-09-10T06:55:15.223Z,19.30
2018-09-10T07:00:19.047Z,19.30
2018-09-10T07:05:23.194Z,19.40
2018-09-10T07:10:27.184Z,19.40
2018-09-10T07:15:52.854Z,19.40
2018-09-10T07:20:57.036Z,19.50
2018-09-10T07:26:00.947Z,19.60
2018-09-10T07:31:04.812Z,19.70
2018-09-10T07:36:08.631Z,19.80
2018-09-10T07:41:12.463Z,19.80
2018-09-10T07:46:16.193Z,19.90
2018-09-10T07:51:20.370Z,19.90
2018-09-10T07:56:25.155Z,19.90
2018-09-10T08:01:29.052Z,20.00
2018-09-10T08:06:33.402Z,20.10
2018-09-10T08:11:36.980Z,20.20
2018-09-10T08:16:40.680Z,20.30
2018-09-10T08:21:45.096Z,20.40
2018-09-10T08:26:49.101Z,20.50
2018-09-10T08:31:52.800Z,20.60
2018-09-10T08:36:56.684Z,20.60
2018-09-10T08:42:00.428Z,20.70
2018-09-10T08:47:04.253Z,20.80
2018-09-10T08:52:08.369Z,20.80
2018-09-10T08:57:12.402Z,20.90
2018-09-10T09:02:16.332Z,20.90
2018-09-10T09:07:20.253Z,21.00
2018-09-10T09:12:23.948Z,21.00
2018-09-10T09:17:28.483Z,21.10
2018-09-10T09:22:32.171Z,21.30
2018-09-10T09:27:36.072Z,21.50
2018-09-10T09:32:39.955Z,21.60
2018-09-10T09:37:49.091Z,21.70
2018-09-10T09:42:58.288Z,21.80
2018-09-10T09:53:54.113Z,22.00
2018-09-10T10:21:00.225Z,22.20
2018-09-10T10:26:04.373Z,22.30
2018-09-10T10:31:08.394Z,22.20
2018-09-10T10:36:12.351Z,22.20
2018-09-10T10:41:16.655Z,22.30
2018-09-10T10:46:20.982Z,22.20
2018-09-10T10:51:24.690Z,22.30
2018-09-10T10:56:28.969Z,22.30
2018-09-10T11:01:33.213Z,22.30
2018-09-10T11:06:37.504Z,22.30
2018-09-10T11:11:41.163Z,22.30
2018-09-10T11:16:45.117Z,22.30
2018-09-10T11:21:56.084Z,22.30
2018-09-10T11:27:00.135Z,22.40
2018-09-10T11:32:04.371Z,22.50
2018-09-10T11:37:08.220Z,22.60
2018-09-10T11:42:12.155Z,22.60
2018-09-10T11:47:16.288Z,22.70
2018-09-10T11:58:03.025Z,22.80
2018-09-10T12:03:07.165Z,22.90
2018-09-10T12:08:10.905Z,22.90
2018-09-10T12:13:14.927Z,22.90
2018-09-10T12:23:48.327Z,22.70
2018-09-10T12:28:52.555Z,22.60
2018-09-10T12:33:56.512Z,22.60
2018-09-10T12:39:01.112Z,22.50
2018-09-10T12:44:05.688Z,22.50
2018-09-10T12:54:50.278Z,22.50
2018-09-10T12:59:53.928Z,22.50
2018-09-10T13:04:57.789Z,22.60
2018-09-10T13:10:02.111Z,22.60
2018-09-10T13:15:06.104Z,22.70
2018-09-10T13:20:09.808Z,22.80
2018-09-10T13:25:13.473Z,22.90
2018-09-10T13:30:17.361Z,23.00
2018-09-10T13:35:21.124Z,23.10
2018-09-10T13:40:24.737Z,23.20
2018-09-10T13:45:28.534Z,23.10
2018-09-10T13:50:32.280Z,23.10
2018-09-10T13:55:36.572Z,23.00
2018-09-10T14:00:40.366Z,23.00
2018-09-10T14:05:44.075Z,23.00
2018-09-10T14:10:47.900Z,23.10
2018-09-10T14:15:51.927Z,23.00
2018-09-10T14:20:55.787Z,23.00
2018-09-10T14:25:59.604Z,23.00
2018-09-10T14:31:03.900Z,23.10
2018-09-10T14:36:08.547Z,23.10
2018-09-10T14:41:12.259Z,23.10
2018-09-10T14:46:15.967Z,23.20
2018-09-10T14:51:20.242Z,23.20
2018-09-10T14:56:23.944Z,23.30
2018-09-10T15:01:28.063Z,23.20
2018-09-10T15:06:31.873Z,23.20
2018-09-10T15:11:36.024Z,23.10
2018-09-10T15:16:40.126Z,23.10
2018-09-10T15:21:44.173Z,23.10
2018-09-10T15:27:06.016Z,23.10
2018-09-10T15:32:10.139Z,23.00
2018-09-10T15:37:13.856Z,22.90
2018-09-10T15:42:28.161Z,22.90
2018-09-10T15:47:51.384Z,22.80
2018-09-10T15:52:55.461Z,22.80
2018-09-10T15:58:22.083Z,22.80
2018-09-10T16:03:26.230Z,22.80
2018-09-10T16:46:48.724Z,22.80
2018-09-10T16:51:52.807Z,22.70
2018-09-10T16:56:56.491Z,22.70
2018-09-10T17:02:00.517Z,22.60
2018-09-10T17:07:05.002Z,22.60
2018-09-10T17:12:09.015Z,22.50
2018-09-10T17:17:34.130Z,22.50
2018-09-10T17:28:08.467Z,22.30
2018-09-10T17:33:13.060Z,22.30
2018-09-10T17:38:17.014Z,22.10
2018-09-10T17:43:20.580Z,22.00
2018-09-10T17:48:24.711Z,21.90
2018-09-10T17:53:28.882Z,21.80
2018-09-10T17:58:32.612Z,21.70
2018-09-10T18:03:36.316Z,21.60
2018-09-10T18:08:40.202Z,21.50
2018-09-10T18:13:44.152Z,21.50
2018-09-10T18:18:52.170Z,21.40
2018-09-10T18:23:56.151Z,21.20
2018-09-10T18:34:28.010Z,21.10
2018-09-10T18:39:32.071Z,20.90
2018-09-10T18:44:36.078Z,20.80
2018-09-10T18:49:40.028Z,20.70
2018-09-10T18:54:43.773Z,20.70
2018-09-10T18:59:47.582Z,20.60
2018-09-10T19:04:51.422Z,20.50
2018-09-10T19:09:55.237Z,20.40
2018-09-10T19:14:59.345Z,20.30
2018-09-10T19:20:03.057Z,20.30
2018-09-10T19:25:07.260Z,20.20
2018-09-10T19:30:11.133Z,20.00
2018-09-10T19:35:14.992Z,20.00
2018-09-10T19:40:18.963Z,19.90
2018-09-10T19:45:23.704Z,19.80
2018-09-10T19:50:27.335Z,19.70
2018-09-10T19:55:31.251Z,19.60
2018-09-10T20:00:34.817Z,19.50
2018-09-10T20:05:38.653Z,19.50
2018-09-10T20:10:42.817Z,19.50
2018-09-10T20:15:46.968Z,19.40
2018-09-10T20:20:50.630Z,19.30
2018-09-10T20:25:54.992Z,19.30
2018-09-10T20:30:58.843Z,19.20
2018-09-10T20:36:02.510Z,19.20
2018-09-10T20:41:06.628Z,19.20
2018-09-10T20:46:10.512Z,19.10
2018-09-10T20:51:14.815Z,19.10
2018-09-10T20:56:19.114Z,19.00
2018-09-10T21:01:22.890Z,19.00
2018-09-10T21:06:26.799Z,19.00
2018-09-10T21:11:30.723Z,19.00
2018-09-10T21:16:34.676Z,19.00
2018-09-10T21:21:38.358Z,19.10
2018-09-10T21:26:42.239Z,19.20
2018-09-10T21:31:46.205Z,19.20
2018-09-10T21:36:50.262Z,19.30
2018-09-10T21:41:54.184Z,19.30
2018-09-10T21:46:57.801Z,19.30
2018-09-10T21:52:01.605Z,19.30
2018-09-10T21:57:05.572Z,19.30
2018-09-10T22:02:09.639Z,19.30
2018-09-10T22:07:13.503Z,19.40
2018-09-10T22:12:17.357Z,19.40
2018-09-10T22:17:21.662Z,19.50
2018-09-10T22:22:25.729Z,19.50
2018-09-10T22:27:29.868Z,19.40
2018-09-10T22:32:33.679Z,19.40
2018-09-10T22:37:37.672Z,19.40
2018-09-10T22:42:41.675Z,19.50
2018-09-10T22:47:45.742Z,19.50
2018-09-10T22:52:49.991Z,19.40
2018-09-10T22:57:53.852Z,19.40
2018-09-10T23:02:58.194Z,19.40
2018-09-10T23:08:02.220Z,19.40
2018-09-10T23:13:06.085Z,19.40
2018-09-10T23:23:56.091Z,19.40
2018-09-10T23:29:00.424Z,19.30
2018-09-10T23:34:04.576Z,19.30
2018-09-10T23:39:30.280Z,19.30
2018-09-10T23:44:34.020Z,19.20
2018-09-10T23:49:38.055Z,19.20
2018-09-10T23:54:42.037Z,19.20
2018-09-10T23:59:46.036Z,19.20
